Time;durP1;ratioP1;P1;durP2;ratioP2;P2;SDS_P1;SDS_P2;PMS_P1;PMS_P2;Temp;Humidity;BMP_temperature;BMP_pressure;BME280_temperature;BME280_humidity;BME280_pressure;Samples;Min_cycle;Max_cycle;Signal;HPM_P1;HPM_P2
2022/11/25 00:01:39;;;;;;;15.70;2.63;;;;;;;9.05;100.00;100649.53;10413010;28;20057;-65
2022/11/25 00:06:40;;;;;;;14.40;3.38;;;;;;;8.95;100.00;100648.19;10412369;28;20563;-64
2022/11/25 00:11:45;;;;;;;13.50;2.65;;;;;;;8.94;100.00;100639.56;10412336;28;20080;-66
2022/11/25 00:16:46;;;;;;;11.18;2.53;;;;;;;8.97;100.00;100638.56;10412245;28;20407;-64
2022/11/25 00:21:48;;;;;;;10.32;2.40;;;;;;;8.94;100.00;100626.53;10409981;28;20104;-69
2022/11/25 00:26:51;;;;;;;7.15;2.38;;;;;;;8.96;100.00;100627.31;10411854;28;20464;-66
2022/11/25 00:31:52;;;;;;;9.73;2.75;;;;;;;8.94;100.00;100623.06;10411989;28;20057;-62
2022/11/25 00:36:55;;;;;;;15.68;3.35;;;;;;;8.92;100.00;100620.53;10411635;28;20107;-62
2022/11/25 00:47:20;;;;;;;7.60;2.33;;;;;;;8.91;100.00;100608.44;10411399;28;20072;-64
2022/11/25 00:52:26;;;;;;;10.88;2.42;;;;;;;8.85;100.00;100603.47;10408910;28;20503;-64
2022/11/25 00:57:29;;;;;;;8.25;2.88;;;;;;;8.85;100.00;100617.31;10411552;28;20057;-63
2022/11/25 01:02:31;;;;;;;9.20;2.60;;;;;;;8.80;100.00;100619.28;10411280;28;20107;-64
2022/11/25 01:07:33;;;;;;;12.90;2.85;;;;;;;8.83;100.00;100626.94;10411372;28;20050;-66
2022/11/25 01:12:36;;;;;;;11.57;2.70;;;;;;;8.83;100.00;100624.31;10410982;28;20052;-64
2022/11/25 01:17:37;;;;;;;8.80;2.70;;;;;;;8.93;100.00;100626.59;10410829;28;20064;-64
2022/11/25 01:22:40;;;;;;;10.45;2.60;;;;;;;8.97;100.00;100626.38;10409305;28;20049;-66
2022/11/25 01:27:43;;;;;;;12.15;2.90;;;;;;;8.97;100.00;100629.00;10411072;28;20464;-64
2022/11/25 01:32:45;;;;;;;9.43;2.30;;;;;;;9.01;100.00;100635.78;10410854;28;20053;-65
2022/11/25 01:37:47;;;;;;;16.77;2.72;;;;;;;9.10;100.00;100642.38;10410409;28;20399;-65
2022/11/25 01:42:51;;;;;;;11.15;2.70;;;;;;;9.04;100.00;100640.03;10410615;28;20315;-65
2022/11/25 01:47:59;;;;;;;9.48;2.63;;;;;;;9.06;100.00;100647.78;10410983;28;20045;-65
2022/11/25 01:53:08;;;;;;;12.18;2.65;;;;;;;9.06;100.00;100668.63;10407713;28;20060;-63
2022/11/25 01:58:18;;;;;;;10.40;2.97;;;;;;;9.06;100.00;100666.00;10410717;28;20543;-67
2022/11/25 02:03:27;;;;;;;12.07;2.75;;;;;;;9.07;100.00;100680.72;10417521;28;20079;-66
2022/11/25 02:08:30;;;;;;;4.10;2.03;;;;;;;9.01;100.00;100692.22;10419256;28;20087;-64
2022/11/25 02:13:33;;;;;;;8.55;2.47;;;;;;;9.00;100.00;100690.53;10416940;28;20065;-65
2022/11/25 02:18:35;;;;;;;7.95;2.15;;;;;;;9.01;100.00;100687.84;10417348;28;20098;-67
2022/11/25 02:23:51;;;;;;;7.45;2.65;;;;;;;9.02;100.00;100693.91;10414826;28;20073;-64
2022/11/25 02:28:54;;;;;;;9.38;2.58;;;;;;;9.00;100.00;100708.75;10417266;28;20085;-65
2022/11/25 02:33:56;;;;;;;10.85;2.65;;;;;;;8.92;100.00;100713.38;10416468;28;20073;-65
2022/11/25 02:39:00;;;;;;;6.45;2.30;;;;;;;8.77;100.00;100720.84;10416074;28;20151;-65
2022/11/25 02:44:05;;;;;;;9.60;2.72;;;;;;;8.59;100.00;100733.63;10416099;28;20049;-68
2022/11/25 02:49:07;;;;;;;6.85;2.13;;;;;;;8.51;100.00;100735.59;10415796;28;20444;-65
2022/11/25 02:54:09;;;;;;;8.50;2.30;;;;;;;8.40;100.00;100720.41;10413766;28;20103;-67
2022/11/25 02:59:12;;;;;;;8.82;2.10;;;;;;;8.31;100.00;100707.72;10415176;28;20061;-68
2022/11/25 03:04:15;;;;;;;14.45;2.63;;;;;;;8.19;100.00;100694.25;10415275;28;20551;-68
2022/11/25 03:09:17;;;;;;;11.50;1.98;;;;;;;8.02;100.00;100647.19;10415116;28;20099;-66
2022/11/25 03:14:20;;;;;;;8.07;2.00;;;;;;;7.88;100.00;100648.53;10413981;28;20466;-67
2022/11/25 03:19:21;;;;;;;8.50;1.85;;;;;;;7.83;100.00;100666.00;10414372;28;20460;-67
2022/11/25 03:24:24;;;;;;;12.05;1.88;;;;;;;7.76;100.00;100690.53;10412636;28;20092;-67
2022/11/25 03:29:27;;;;;;;2.40;1.60;;;;;;;7.78;100.00;100662.72;10414729;28;20558;-66
2022/11/25 03:34:29;;;;;;;7.03;1.85;;;;;;;7.69;100.00;100685.50;10414335;28;20083;-66
2022/11/25 03:39:31;;;;;;;4.53;1.65;;;;;;;7.63;100.00;100723.81;10413799;28;20106;-67
2022/11/25 03:44:34;;;;;;;6.63;1.88;;;;;;;7.54;100.00;100727.56;10413527;28;20057;-66
2022/11/25 03:49:35;;;;;;;6.40;1.85;;;;;;;7.53;100.00;100725.88;10413140;28;20137;-66
2022/11/25 03:54:37;;;;;;;3.20;1.25;;;;;;;7.52;100.00;100724.19;10410783;28;20067;-66
2022/11/25 03:59:40;;;;;;;1.17;1.10;;;;;;;7.51;100.00;100738.03;10412824;28;20057;-68
2022/11/25 04:04:42;;;;;;;1.17;0.95;;;;;;;7.45;100.00;100745.13;10412774;28;20088;-68
2022/11/25 04:09:43;;;;;;;5.00;1.30;;;;;;;7.41;100.00;100740.94;10412743;28;20569;-68
2022/11/25 04:14:48;;;;;;;5.57;1.70;;;;;;;7.39;100.00;100747.91;10412578;28;20073;-65
2022/11/25 04:19:50;;;;;;;4.65;1.10;;;;;;;7.33;100.00;100753.28;10412396;28;20062;-66
2022/11/25 04:24:51;;;;;;;4.03;1.40;;;;;;;7.28;100.00;100760.34;10409247;28;20133;-69
2022/11/25 04:29:54;;;;;;;6.45;1.50;;;;;;;7.24;100.00;100771.72;10412158;28;20079;-68
2022/11/25 04:34:56;;;;;;;4.30;1.42;;;;;;;7.19;100.00;100784.84;10412364;28;20052;-67
2022/11/25 04:39:57;;;;;;;6.05;1.40;;;;;;;7.14;100.00;100787.59;10412096;28;20456;-68
2022/11/25 04:45:02;;;;;;;6.90;1.90;;;;;;;7.03;100.00;100806.06;10411662;28;20121;-68
2022/11/25 04:50:06;;;;;;;4.05;1.35;;;;;;;6.95;100.00;100814.03;10409926;28;20078;-67
2022/11/25 04:55:09;;;;;;;5.05;1.58;;;;;;;6.90;100.00;100812.47;10411453;28;20050;-68
2022/11/25 05:00:13;;;;;;;3.67;1.45;;;;;;;6.83;100.00;100801.41;10411560;28;20057;-66
2022/11/25 05:05:15;;;;;;;7.43;1.65;;;;;;;6.84;100.00;100816.06;10411205;28;20070;-67
2022/11/25 05:10:17;;;;;;;4.78;1.60;;;;;;;6.79;100.00;100824.00;10411249;28;20095;-66
2022/11/25 05:15:20;;;;;;;7.55;1.75;;;;;;;6.81;100.00;100831.75;10411653;28;20529;-66
2022/11/25 05:20:21;;;;;;;5.38;1.77;;;;;;;6.75;100.00;100827.56;10408949;28;20099;-69
2022/11/25 05:25:23;;;;;;;8.13;1.85;;;;;;;6.64;100.00;100824.41;10410717;28;20474;-66
2022/11/25 05:30:26;;;;;;;5.18;1.75;;;;;;;6.57;100.00;100823.72;10410859;28;20053;-68
2022/11/25 05:35:28;;;;;;;3.42;1.70;;;;;;;6.56;100.00;100827.19;10414092;28;20456;-66
2022/11/25 05:40:31;;;;;;;3.00;1.48;;;;;;;6.56;100.00;100832.38;10418726;28;20045;-67
2022/11/25 05:45:34;;;;;;;5.03;1.38;;;;;;;6.50;100.00;100832.53;10418469;28;20492;-68
2022/11/25 05:50:37;;;;;;;4.38;1.55;;;;;;;6.41;100.00;100849.19;10415576;28;20460;-66
2022/11/25 05:55:39;;;;;;;9.43;1.95;;;;;;;6.39;100.00;100846.63;10417916;28;20060;-66
2022/11/25 06:00:42;;;;;;;1.85;1.45;;;;;;;6.41;100.00;100849.19;10417670;28;20057;-66
2022/11/25 06:05:45;;;;;;;3.63;1.70;;;;;;;6.25;100.00;100859.06;10418364;28;20107;-67
2022/11/25 06:10:46;;;;;;;;;;;;;;;6.18;100.00;100856.63;10417766;28;20084;-66
2022/11/25 06:15:49;;;;;;;4.40;1.63;;;;;;;6.05;100.00;100860.38;10417052;28;20058;-66
2022/11/25 06:20:57;;;;;;;4.88;1.58;;;;;;;6.10;100.00;100866.31;10414580;28;20049;-66
2022/11/25 06:26:04;;;;;;;4.10;1.98;;;;;;;6.08;100.00;100878.44;10417088;28;20417;-70
2022/11/25 06:31:11;;;;;;;13.65;2.33;;;;;;;6.15;100.00;100873.97;10417168;28;20553;-67
2022/11/25 06:36:16;;;;;;;6.22;2.30;;;;;;;6.16;100.00;100886.91;10416219;28;20489;-66
2022/11/25 06:41:19;;;;;;;9.50;2.38;;;;;;;6.03;100.00;100895.81;10416016;28;20086;-66
2022/11/25 06:46:21;;;;;;;6.82;2.40;;;;;;;6.04;100.00;100898.41;10416156;28;20106;-67
2022/11/25 06:51:23;;;;;;;7.05;2.75;;;;;;;6.06;100.00;100908.75;10413737;28;20092;-68
2022/11/25 06:56:28;;;;;;;10.70;3.17;;;;;;;6.08;100.00;100903.50;10416072;28;20045;-67
2022/11/25 07:01:31;;;;;;;7.15;2.85;;;;;;;5.91;100.00;100907.28;10414996;28;20225;-67
2022/11/25 07:06:33;;;;;;;7.72;2.90;;;;;;;5.90;100.00;100916.81;10414882;28;20053;-65
2022/11/25 07:11:39;;;;;;;5.57;3.03;;;;;;;5.90;100.00;100931.50;10414898;28;20049;-65
2022/11/25 07:16:45;;;;;;;8.93;3.22;;;;;;;5.79;100.00;100944.69;10414507;28;20053;-65
2022/11/25 07:21:48;;;;;;;3.30;2.55;;;;;;;5.78;100.00;100950.72;10412590;28;20057;-65
2022/11/25 07:26:50;;;;;;;12.00;2.58;;;;;;;5.72;100.00;100958.63;10413741;28;20053;-65
2022/11/25 07:31:54;;;;;;;3.83;2.50;;;;;;;5.67;100.00;100971.66;10415629;28;20113;-68
2022/11/25 07:36:56;;;;;;;10.88;2.75;;;;;;;5.65;100.00;100979.47;10415830;28;20458;-68
2022/11/25 07:41:59;;;;;;;10.32;3.15;;;;;;;5.78;100.00;100990.44;10415396;28;20447;-66
2022/11/25 07:47:02;;;;;;;4.07;2.33;;;;;;;5.78;100.00;100999.94;10415565;28;20049;-69
2022/11/25 07:52:05;;;;;;;12.18;3.65;;;;;;;5.82;100.00;101011.97;10413450;28;20055;-68
2022/11/25 07:57:06;;;;;;;6.75;2.67;;;;;;;5.88;100.00;101017.00;10414338;28;20049;-69
2022/11/25 08:02:10;;;;;;;8.37;2.93;;;;;;;6.00;100.00;101022.81;10414637;28;20517;-69
2022/11/25 08:07:12;;;;;;;8.07;3.10;;;;;;;6.09;100.00;101035.63;10412924;28;20314;-68
2022/11/25 08:12:13;;;;;;;8.30;2.53;;;;;;;6.08;100.00;101048.59;10413597;28;20064;-68
2022/11/25 08:17:16;;;;;;;3.70;2.40;;;;;;;6.14;100.00;101049.34;10412152;28;20063;-68
2022/11/25 08:22:18;;;;;;;9.93;3.20;;;;;;;6.25;100.00;101058.63;10409021;28;20081;-68
2022/11/25 08:27:19;;;;;;;5.33;2.70;;;;;;;6.33;100.00;101058.47;10411293;28;20049;-69
2022/11/25 08:32:22;;;;;;;5.88;2.80;;;;;;;6.47;100.00;101064.22;10411054;28;20354;-68
2022/11/25 08:37:24;;;;;;;8.30;3.05;;;;;;;6.60;100.00;101071.75;10411287;28;20053;-69
2022/11/25 08:42:26;;;;;;;6.37;2.27;;;;;;;6.70;100.00;101063.72;10410574;28;20091;-68
2022/11/25 08:47:29;;;;;;;5.53;2.47;;;;;;;6.82;100.00;101069.50;10410523;28;20787;-68
2022/11/25 08:52:30;;;;;;;6.75;2.58;;;;;;;6.94;100.00;101071.81;10408189;28;20041;-69
2022/11/25 08:57:32;;;;;;;8.73;2.80;;;;;;;7.04;100.00;101081.97;10410423;28;20045;-70
2022/11/25 09:02:35;;;;;;;6.43;3.00;;;;;;;7.25;100.00;101083.19;10410681;28;20444;-69
2022/11/25 09:07:37;;;;;;;8.57;3.13;;;;;;;7.37;100.00;101082.03;10409143;28;20107;-67
2022/11/25 09:12:38;;;;;;;7.18;3.30;;;;;;;7.50;100.00;101094.72;10413391;28;20125;-68
2022/11/25 09:17:41;;;;;;;6.65;2.35;;;;;;;7.60;100.00;101098.78;10419952;28;20471;-68
2022/11/25 09:22:43;;;;;;;7.15;2.85;;;;;;;7.80;100.00;101097.41;10399492;28;20046;-68
2022/11/25 09:27:46;;;;;;;8.50;2.83;;;;;;;7.88;100.00;101110.19;10388185;28;20054;-68
2022/11/25 09:32:51;;;;;;;4.35;2.63;;;;;;;8.14;100.00;101112.06;10419506;28;20112;-70
2022/11/25 09:37:53;;;;;;;10.40;3.35;;;;;;;8.54;100.00;101119.66;10419008;28;20049;-69
2022/11/25 09:48:54;;;;;;;3.72;2.38;;;;;;;10.33;100.00;101147.69;10418903;28;20060;-69
2022/11/25 09:54:07;;;;;;;10.05;3.22;;;;;;;9.87;100.00;101148.44;10416584;28;20053;-70
2022/11/25 09:59:18;;;;;;;5.50;2.95;;;;;;;9.98;100.00;101158.50;10417907;28;20084;-68
2022/11/25 10:04:29;;;;;;;13.38;3.03;;;;;;;10.12;100.00;101158.00;10417169;28;20591;-69
2022/11/25 10:09:35;;;;;;;7.45;2.53;;;;;;;10.89;100.00;101171.78;10417898;28;20049;-69
2022/11/25 10:14:46;;;;;;;9.70;2.80;;;;;;;11.14;100.00;101170.81;10417810;28;20053;-69
2022/11/25 10:20:02;;;;;;;8.50;3.23;;;;;;;11.49;100.00;101180.75;10416855;28;20050;-69
2022/11/25 10:25:16;;;;;;;7.55;2.95;;;;;;;11.56;100.00;101197.03;10414746;28;20045;-68
2022/11/25 10:30:22;;;;;;;10.60;2.67;;;;;;;12.03;100.00;101200.34;10416924;28;20061;-69
2022/11/25 10:35:33;;;;;;;6.75;2.38;;;;;;;12.18;99.82;101209.34;10417186;28;20153;-68
2022/11/25 10:40:36;;;;;;;6.20;2.80;;;;;;;11.65;100.00;101224.56;10416478;28;20083;-70
2022/11/25 10:45:48;;;;;;;8.40;3.20;;;;;;;12.19;100.00;101227.59;10412113;28;20343;-70
2022/11/25 10:51:12;;;;;;;5.88;2.75;;;;;;;12.34;99.63;101225.19;10413883;28;20129;-73
2022/11/25 10:56:19;;;;;;;5.95;2.85;;;;;;;13.04;92.43;101239.56;10414786;28;20103;-70
2022/11/25 11:01:24;;;;;;;8.27;2.97;;;;;;;12.20;96.35;101239.75;10415785;28;20497;-69
2022/11/25 11:06:35;;;;;;;5.68;2.90;;;;;;;11.72;96.25;101244.31;10416797;28;20049;-69
2022/11/25 11:11:48;;;;;;;10.20;3.10;;;;;;;11.90;96.21;101242.69;10415737;28;20480;-70
2022/11/25 11:16:54;;;;;;;7.53;2.88;;;;;;;12.25;94.54;101252.59;10415906;28;20077;-68
2022/11/25 11:22:16;;;;;;;11.50;3.08;;;;;;;11.62;91.92;101264.75;10413469;28;20045;-71
2022/11/25 11:27:23;;;;;;;6.13;2.70;;;;;;;11.89;96.35;101271.53;10415613;28;20053;-69
2022/11/25 11:32:29;;;;;;;8.32;2.90;;;;;;;12.33;93.21;101270.63;10415701;28;20045;-69
2022/11/25 11:37:43;;;;;;;8.05;2.60;;;;;;;12.44;92.88;101280.63;10414259;28;20080;-69
2022/11/25 11:43:02;;;;;;;8.43;2.90;;;;;;;12.28;91.15;101289.13;10414149;28;20045;-68
2022/11/25 11:48:20;;;;;;;5.85;2.80;;;;;;;12.61;89.79;101290.34;10414171;28;20049;-69
2022/11/25 11:53:40;;;;;;;7.78;2.67;;;;;;;13.04;86.22;101295.44;10411527;28;20398;-70
2022/11/25 11:59:03;;;;;;;7.25;2.78;;;;;;;13.63;88.54;101300.63;10413619;28;20104;-69
2022/11/25 12:04:17;;;;;;;4.97;2.45;;;;;;;12.94;89.02;101297.63;10413172;28;20045;-69
2022/11/25 12:09:29;;;;;;;5.35;2.30;;;;;;;12.57;88.85;101305.34;10412964;28;20470;-72
2022/11/25 12:14:39;;;;;;;5.07;1.90;;;;;;;12.61;89.04;101320.00;10412179;28;20524;-71
2022/11/25 12:19:52;;;;;;;7.50;2.63;;;;;;;11.79;89.49;101323.34;10413148;28;20055;-71
2022/11/25 12:25:07;;;;;;;8.60;2.50;;;;;;;11.52;94.81;101326.13;10410090;28;20390;-72
2022/11/25 12:30:14;;;;;;;6.80;2.60;;;;;;;11.23;95.18;101326.34;10412689;28;20083;-70
2022/11/25 12:35:32;;;;;;;9.95;2.80;;;;;;;11.04;95.43;101334.88;10408144;28;20083;-69
2022/11/25 12:40:45;;;;;;;6.25;2.85;;;;;;;11.30;93.70;101343.47;10413384;28;20115;-70
2022/11/25 12:46:00;;;;;;;9.15;2.78;;;;;;;12.22;91.74;101362.66;10411353;28;20053;-70
2022/11/25 12:51:16;;;;;;;6.60;2.35;;;;;;;11.71;94.76;101357.66;10410064;28;20103;-69
2022/11/25 12:56:27;;;;;;;7.57;2.40;;;;;;;10.89;97.44;101366.75;10412804;28;20095;-72
2022/11/25 13:02:01;;;;;;;13.13;3.03;;;;;;;10.67;99.38;101373.56;10416633;28;20367;-72
2022/11/25 13:07:24;;;;;;;8.40;2.47;;;;;;;10.55;100.00;101387.03;10419977;28;20065;-73
2022/11/25 13:12:46;;;;;;;5.53;2.40;;;;;;;10.65;100.00;101382.38;10416589;28;20050;-74
2022/11/25 13:17:51;;;;;;;13.73;3.30;;;;;;;10.67;100.00;101393.59;10415355;28;20053;-71
2022/11/25 13:23:06;;;;;;;7.60;2.97;;;;;;;11.27;100.00;101390.66;10410638;28;20394;-72
2022/11/25 13:28:31;;;;;;;11.40;3.33;;;;;;;11.89;97.03;101402.28;10389738;28;20055;-70
2022/11/25 13:34:25;;;;;;;14.63;3.47;;;;;;;11.56;95.26;101414.84;10371793;28;20545;-72
2022/11/25 13:39:33;;;;;;;12.70;3.55;;;;;;;11.58;96.50;101420.00;10371555;28;20613;-71
2022/11/25 13:44:52;;;;;;;12.80;3.50;;;;;;;11.62;93.94;101415.50;10370974;28;20108;-70
2022/11/25 13:49:57;;;;;;;16.92;4.47;;;;;;;11.17;98.62;101431.06;10370199;28;20049;-73
2022/11/25 13:55:09;;;;;;;10.70;4.00;;;;;;;10.93;100.00;101447.56;10368940;28;20050;-70
2022/11/25 14:01:02;;;;;;;17.83;3.60;;;;;;;11.01;100.00;101447.28;10415284;28;20053;-73
2022/11/25 14:06:12;;;;;;;10.38;3.50;;;;;;;10.98;100.00;101457.00;10401235;28;20104;-72
2022/11/25 14:12:00;;;;;;;11.93;3.58;;;;;;;10.75;100.00;101456.88;10416002;28;20049;-74
2022/11/25 14:17:34;;;;;;;8.88;3.80;;;;;;;10.46;100.00;101465.63;10370156;28;20061;-69
2022/11/25 14:23:13;;;;;;;13.35;3.88;;;;;;;10.29;100.00;101475.66;10414957;28;20049;-71
2022/11/25 14:28:29;;;;;;;9.07;3.97;;;;;;;10.22;100.00;101474.16;10416995;28;20117;-64
2022/11/25 14:33:38;;;;;;;11.98;3.70;;;;;;;10.02;100.00;101483.44;10416993;28;20080;-66
2022/11/25 14:38:49;;;;;;;15.35;4.25;;;;;;;9.83;100.00;101497.91;10416209;28;20103;-65
2022/11/25 14:43:58;;;;;;;13.95;4.00;;;;;;;9.66;100.00;101507.91;10416909;28;20049;-65
2022/11/25 14:49:02;;;;;;;8.43;3.63;;;;;;;9.64;100.00;101516.66;10416223;28;20103;-64
2022/11/25 14:54:08;;;;;;;11.82;3.47;;;;;;;9.58;100.00;101529.88;10414034;28;20057;-64
2022/11/25 14:59:11;;;;;;;15.80;4.22;;;;;;;9.65;100.00;101547.91;10413427;28;20099;-65
2022/11/25 15:04:20;;;;;;;8.95;3.33;;;;;;;9.78;100.00;101550.16;10416057;28;20076;-65
2022/11/25 15:09:25;;;;;;;10.55;3.40;;;;;;;9.85;100.00;101551.72;10416415;28;20052;-64
2022/11/25 15:14:30;;;;;;;15.02;5.50;;;;;;;9.90;100.00;101551.59;10416959;28;20053;-63
2022/11/25 15:19:36;;;;;;;18.42;4.80;;;;;;;9.90;100.00;101562.00;10415664;28;20050;-64
2022/11/25 15:24:44;;;;;;;17.02;4.60;;;;;;;9.78;100.00;101574.50;10414498;28;20053;-64
2022/11/25 15:29:49;;;;;;;15.27;4.32;;;;;;;9.68;100.00;101578.22;10416439;28;20056;-64
2022/11/25 15:34:54;;;;;;;12.20;4.70;;;;;;;9.57;100.00;101590.69;10416398;28;20176;-65
2022/11/25 15:40:35;;;;;;;14.10;4.05;;;;;;;9.46;100.00;101604.00;10413679;28;20057;-65
2022/11/25 15:45:44;;;;;;;12.90;3.75;;;;;;;9.27;100.00;101610.53;10413736;28;20058;-64
2022/11/25 15:50:48;;;;;;;8.52;3.75;;;;;;;9.14;100.00;101620.38;10370782;28;20046;-64
2022/11/25 15:55:51;;;;;;;13.80;3.90;;;;;;;8.97;100.00;101633.78;10373122;28;20076;-64
2022/11/25 16:01:02;;;;;;;14.82;3.65;;;;;;;8.73;100.00;101636.06;10403598;28;20508;-64
2022/11/25 16:06:22;;;;;;;14.40;4.55;;;;;;;8.49;100.00;101653.03;10414968;28;20045;-65
2022/11/25 16:11:29;;;;;;;16.75;4.38;;;;;;;8.28;100.00;101659.53;10414659;28;20049;-65
2022/11/25 16:16:32;;;;;;;25.67;4.97;;;;;;;8.26;100.00;101672.56;10414562;28;20053;-64
2022/11/25 16:21:49;;;;;;;14.68;5.53;;;;;;;8.33;100.00;101681.97;10412250;28;20053;-74
2022/11/25 16:26:56;;;;;;;14.40;5.22;;;;;;;8.37;100.00;101695.75;10413647;28;20079;-74
2022/11/25 16:31:58;;;;;;;16.85;4.78;;;;;;;8.39;100.00;101704.41;10413739;28;20099;-74
2022/11/25 16:37:02;;;;;;;12.95;5.40;;;;;;;8.49;100.00;101721.50;10412983;28;20088;-72
2022/11/25 16:42:05;;;;;;;20.60;5.47;;;;;;;8.53;100.00;101726.66;10412660;28;20131;-72
2022/11/25 16:47:10;;;;;;;15.18;5.13;;;;;;;8.42;100.00;101732.91;10412365;28;20046;-73
2022/11/25 16:52:14;;;;;;;16.40;5.25;;;;;;;8.27;100.00;101735.81;10410360;28;20057;-74
2022/11/25 16:57:20;;;;;;;16.13;5.15;;;;;;;8.12;100.00;101745.63;10412281;28;20100;-71
2022/11/25 17:02:22;;;;;;;16.92;5.28;;;;;;;7.95;100.00;101759.78;10411587;28;20479;-72
2022/11/25 17:07:26;;;;;;;14.00;4.80;;;;;;;7.79;100.00;101766.09;10412126;28;20050;-71
2022/11/25 17:12:32;;;;;;;23.63;6.13;;;;;;;7.63;100.00;101771.50;10411998;28;20049;-72
2022/11/25 17:17:35;;;;;;;21.17;5.25;;;;;;;7.78;100.00;101779.97;10412030;28;20188;-70
2022/11/25 17:22:38;;;;;;;17.38;5.45;;;;;;;7.65;100.00;101787.94;10409491;28;20045;-73
2022/11/25 17:27:42;;;;;;;13.98;5.28;;;;;;;7.57;100.00;101803.63;10411438;28;20050;-72
2022/11/25 17:32:44;;;;;;;22.20;6.40;;;;;;;7.47;100.00;101807.25;10417145;28;20046;-71
2022/11/25 17:37:48;;;;;;;15.68;6.10;;;;;;;7.51;100.00;101823.66;10419574;28;20053;-71
2022/11/25 17:42:49;;;;;;;25.80;8.98;;;;;;;7.53;100.00;101827.09;10418886;28;20053;-72
2022/11/25 17:47:51;;;;;;;16.42;7.22;;;;;;;7.50;100.00;101842.72;10418838;28;20503;-71
2022/11/25 17:52:54;;;;;;;16.17;6.70;;;;;;;7.34;100.00;101842.91;10416521;28;20046;-70
2022/11/25 17:57:56;;;;;;;17.88;6.40;;;;;;;7.34;100.00;101863.69;10418815;28;20065;-71
2022/11/25 18:02:57;;;;;;;15.82;6.72;;;;;;;7.17;100.00;101872.56;10418180;28;20080;-70
2022/11/25 18:08:00;;;;;;;9.75;5.55;;;;;;;7.28;100.00;101884.53;10418519;28;20080;-71
2022/11/25 18:13:02;;;;;;;18.45;7.03;;;;;;;7.34;100.00;101889.66;10418077;28;20085;-71
2022/11/25 18:18:13;;;;;;;;;;;;;;;7.33;100.00;101893.97;10418929;28;20110;-72
2022/11/25 18:23:16;;;;;;;18.02;6.47;;;;;;;7.31;100.00;101895.75;10415637;28;19935;-71
2022/11/25 18:28:23;;;;;;;27.30;9.15;;;;;;;7.26;100.00;101901.88;10417556;28;20053;-71
2022/11/25 18:33:24;;;;;;;20.25;8.70;;;;;;;7.10;100.00;101907.25;10417077;28;20111;-71
2022/11/25 18:38:27;;;;;;;22.27;10.05;;;;;;;6.87;100.00;101923.06;10417147;28;20057;-71
2022/11/25 18:43:33;;;;;;;16.52;7.30;;;;;;;6.65;100.00;101910.28;10416900;28;20096;-71
2022/11/25 18:48:35;;;;;;;20.98;8.43;;;;;;;6.58;100.00;101925.03;10416570;28;20064;-71
2022/11/25 18:53:39;;;;;;;;;;;;;;;6.66;100.00;101932.72;10414664;28;20149;-71
2022/11/25 18:58:46;;;;;;;14.20;7.90;;;;;;;6.54;100.00;101933.72;10416542;28;20005;-70
2022/11/25 19:03:48;;;;;;;15.82;8.18;;;;;;;6.41;100.00;101945.91;10415890;28;20468;-71
2022/11/25 19:08:52;;;;;;;29.13;8.95;;;;;;;6.31;100.00;101958.06;10415967;28;20066;-71
2022/11/25 19:14:01;;;;;;;33.28;14.52;;;;;;;6.13;100.00;101966.81;10415925;28;20046;-70
2022/11/25 19:19:05;;;;;;;22.17;8.27;;;;;;;6.09;100.00;101973.72;10415550;28;20053;-70
2022/11/25 19:24:12;;;;;;;23.13;8.65;;;;;;;5.90;100.00;101989.38;10412681;28;20083;-70
2022/11/25 19:29:20;;;;;;;21.05;9.05;;;;;;;5.83;100.00;101987.66;10415058;28;20403;-69
2022/11/25 19:34:30;;;;;;;19.83;7.60;;;;;;;5.79;100.00;101993.72;10414767;28;20074;-68
2022/11/25 19:39:36;;;;;;;17.42;7.40;;;;;;;5.65;100.00;101996.38;10415066;28;20072;-69
2022/11/25 19:44:38;;;;;;;28.95;8.23;;;;;;;5.62;100.00;101999.84;10415088;28;20098;-69
2022/11/25 19:49:39;;;;;;;21.85;8.40;;;;;;;5.52;100.00;102003.31;10416170;28;20137;-68
2022/11/25 19:54:43;;;;;;;25.65;7.90;;;;;;;5.59;100.00;102015.38;10412885;28;20049;-69
2022/11/25 19:59:47;;;;;;;15.95;7.70;;;;;;;5.45;100.00;102022.31;10415724;28;20114;-71
2022/11/25 20:04:52;;;;;;;31.52;11.23;;;;;;;5.36;100.00;102024.03;10415065;28;20092;-68
2022/11/25 20:10:19;;;;;;;28.33;10.70;;;;;;;5.25;100.00;102031.84;10415121;28;20630;-69
2022/11/25 20:15:21;;;;;;;26.85;7.95;;;;;;;5.26;100.00;102043.91;10414479;28;20063;-69
2022/11/25 20:20:26;;;;;;;;;;;;;;;5.28;100.00;102049.09;10413344;28;20049;-69
2022/11/25 20:25:30;;;;;;;20.25;7.00;;;;;;;5.20;100.00;102054.25;10414176;28;19921;-70
2022/11/25 20:30:31;;;;;;;18.35;7.97;;;;;;;5.20;100.00;102058.59;10414091;28;20493;-69
2022/11/25 20:35:33;;;;;;;18.53;7.53;;;;;;;5.17;100.00;102068.94;10414182;28;20082;-69
2022/11/25 20:40:43;;;;;;;20.20;8.27;;;;;;;5.18;100.00;102075.81;10413459;28;20791;-69
2022/11/25 20:45:45;;;;;;;20.10;7.72;;;;;;;5.25;100.00;102095.66;10412923;28;20052;-68
2022/11/25 20:50:47;;;;;;;15.23;8.37;;;;;;;5.26;100.00;102092.22;10410956;28;20107;-69
2022/11/25 20:55:50;;;;;;;13.77;7.78;;;;;;;5.17;100.00;102089.63;10413576;28;20045;-69
2022/11/25 21:00:55;;;;;;;16.17;7.78;;;;;;;5.10;100.00;102106.88;10412979;28;20540;-70
2022/11/25 21:05:57;;;;;;;16.15;8.40;;;;;;;5.06;100.00;102112.91;10420341;28;20080;-69
2022/11/25 21:11:00;;;;;;;21.77;8.60;;;;;;;4.95;100.00;102121.53;10426271;28;20059;-69
2022/11/25 21:16:02;;;;;;;23.98;9.48;;;;;;;4.82;100.00;102128.38;10426669;28;20310;-69
2022/11/25 21:21:13;;;;;;;18.80;7.90;;;;;;;4.81;100.00;102134.44;10423673;28;20049;-68
2022/11/25 21:26:24;;;;;;;21.40;8.02;;;;;;;4.74;100.00;102140.44;10425278;28;20053;-68
2022/11/25 21:31:28;;;;;;;23.67;7.95;;;;;;;4.85;100.00;102151.69;10425971;28;20119;-68
2022/11/25 21:36:31;;;;;;;19.92;9.27;;;;;;;4.75;100.00;102144.75;10426181;28;20064;-69
2022/11/25 21:41:36;;;;;;;21.65;8.90;;;;;;;4.79;100.00;102159.41;10426457;28;20103;-70
2022/11/25 21:46:37;;;;;;;22.15;8.00;;;;;;;4.70;100.00;102172.31;10426382;28;20125;-70
2022/11/25 21:51:39;;;;;;;17.97;9.17;;;;;;;4.68;100.00;102184.41;10423557;28;20466;-68
2022/11/25 21:56:43;;;;;;;27.48;9.65;;;;;;;4.76;100.00;102187.88;10426009;28;20055;-68
2022/11/25 22:01:47;;;;;;;28.90;7.95;;;;;;;4.73;100.00;102193.03;10426074;28;20092;-69
2022/11/25 22:06:50;;;;;;;21.58;8.98;;;;;;;4.66;100.00;102189.56;10425409;28;20487;-69
2022/11/25 22:11:53;;;;;;;24.20;8.20;;;;;;;4.55;100.00;102199.84;10425100;28;20431;-69
2022/11/25 22:16:57;;;;;;;22.88;7.40;;;;;;;4.51;100.00;102208.44;10421548;28;20393;-69
2022/11/25 22:21:59;;;;;;;18.65;7.72;;;;;;;4.38;100.00;102208.38;10416665;28;20064;-69
2022/11/25 22:27:05;;;;;;;22.63;7.63;;;;;;;4.27;100.00;102210.03;10418310;28;20130;-70
2022/11/25 22:32:10;;;;;;;16.33;8.65;;;;;;;4.21;100.00;102210.00;10417952;28;20051;-69
2022/11/25 22:37:20;;;;;;;26.60;7.88;;;;;;;4.16;100.00;102217.72;10418179;28;20053;-69
2022/11/25 22:42:28;;;;;;;14.52;6.45;;;;;;;4.03;100.00;102227.09;10417850;28;20053;-69
2022/11/25 22:47:36;;;;;;;20.25;7.68;;;;;;;4.11;100.00;102233.19;10417866;28;20069;-69
2022/11/25 22:52:38;;;;;;;17.58;7.50;;;;;;;3.99;100.00;102240.84;10415175;28;20065;-69
2022/11/25 22:57:41;;;;;;;41.67;9.03;;;;;;;4.18;100.00;102251.34;10417450;28;20143;-69
2022/11/25 23:02:43;;;;;;;27.48;8.60;;;;;;;4.19;100.00;102256.50;10416928;28;20059;-69
2022/11/25 23:07:45;;;;;;;20.02;7.65;;;;;;;4.09;100.00;102255.59;10417013;28;20456;-67
2022/11/25 23:12:48;;;;;;;22.90;7.77;;;;;;;3.96;100.00;102269.25;10416977;28;20066;-66
2022/11/25 23:17:53;;;;;;;21.60;7.60;;;;;;;4.03;100.00;102262.44;10416576;28;20057;-66
2022/11/25 23:22:55;;;;;;;16.70;7.72;;;;;;;3.96;100.00;102277.00;10414106;28;20071;-66
2022/11/25 23:28:00;;;;;;;19.17;8.55;;;;;;;3.98;100.00;102277.88;10415445;28;20125;-67
2022/11/25 23:33:10;;;;;;;19.02;8.68;;;;;;;3.89;100.00;102290.69;10415864;28;20102;-66